createdAt,value
2023-03-24T00:00:21.635Z,1.42
2023-03-24T00:02:48.745Z,1.30
2023-03-24T00:05:16.627Z,1.27
2023-03-24T00:07:43.451Z,1.40
2023-03-24T00:10:11.471Z,1.77
2023-03-24T00:12:38.419Z,1.20
2023-03-24T00:15:08.536Z,1.50
2023-03-24T00:17:36.083Z,1.52
2023-03-24T00:20:07.546Z,1.48
2023-03-24T00:22:34.569Z,1.27
2023-03-24T00:25:04.124Z,1.38
2023-03-24T00:27:30.960Z,1.30
2023-03-24T00:29:59.465Z,1.33
2023-03-24T00:32:27.229Z,1.58
2023-03-24T00:34:54.289Z,1.67
2023-03-24T00:37:20.705Z,1.15
2023-03-24T00:39:46.967Z,1.17
2023-03-24T00:42:13.729Z,1.35
2023-03-24T00:44:40.048Z,1.30
2023-03-24T00:47:06.404Z,1.25
2023-03-24T00:49:42.587Z,1.40
2023-03-24T00:52:09.981Z,1.13
2023-03-24T00:54:37.583Z,1.33
2023-03-24T00:57:05.016Z,1.42
2023-03-24T00:59:31.381Z,1.20
2023-03-24T01:01:57.899Z,1.42
2023-03-24T01:04:26.493Z,1.10
2023-03-24T01:06:54.602Z,1.00
2023-03-24T01:09:23.530Z,1.10
2023-03-24T01:11:50.730Z,1.10
2023-03-24T01:14:17.073Z,1.30
2023-03-24T01:16:43.450Z,1.25
2023-03-24T01:19:10.463Z,1.33
2023-03-24T01:21:37.405Z,0.90
2023-03-24T01:24:05.271Z,1.40
2023-03-24T01:26:31.870Z,1.38
2023-03-24T01:28:58.484Z,1.17
2023-03-24T01:31:24.793Z,1.20
2023-03-24T01:33:51.530Z,1.35
2023-03-24T01:36:17.976Z,1.10
2023-03-24T01:38:44.311Z,1.20
2023-03-24T01:41:10.644Z,1.25
2023-03-24T01:43:37.011Z,1.20
2023-03-24T01:46:14.320Z,1.65
2023-03-24T01:48:49.763Z,1.20
2023-03-24T01:51:16.276Z,1.30
2023-03-24T01:53:45.331Z,1.50
2023-03-24T01:56:12.259Z,1.13
2023-03-24T01:58:41.289Z,1.27
2023-03-24T02:01:07.694Z,1.20
2023-03-24T02:03:38.629Z,1.17
2023-03-24T02:06:05.092Z,1.10
2023-03-24T02:08:34.344Z,1.10
2023-03-24T02:11:01.517Z,1.40
2023-03-24T02:13:27.902Z,1.13
2023-03-24T02:16:06.721Z,1.55
2023-03-24T02:18:52.722Z,1.42
2023-03-24T02:21:22.171Z,1.60
2023-03-24T02:24:07.025Z,1.52
2023-03-24T02:26:33.310Z,1.38
2023-03-24T02:29:05.370Z,1.90
2023-03-24T02:31:50.829Z,1.35
2023-03-24T02:34:31.759Z,1.50
2023-03-24T02:37:08.572Z,1.25
2023-03-24T02:39:53.538Z,1.55
2023-03-24T02:42:22.851Z,1.40
2023-03-24T02:45:12.784Z,1.42
2023-03-24T02:47:45.170Z,1.60
2023-03-24T02:50:18.381Z,1.30
2023-03-24T02:53:11.152Z,1.52
2023-03-24T02:55:52.581Z,1.23
2023-03-24T02:58:28.127Z,1.55
2023-03-24T03:01:02.867Z,2.07
2023-03-24T03:03:34.396Z,1.50
2023-03-24T03:06:18.893Z,1.45
2023-03-24T03:08:47.621Z,1.60
2023-03-24T03:11:15.361Z,1.70
2023-03-24T03:13:49.813Z,1.50
2023-03-24T03:16:19.462Z,1.35
2023-03-24T03:18:51.774Z,1.40
2023-03-24T03:21:19.740Z,1.60
2023-03-24T03:23:49.752Z,1.75
2023-03-24T03:26:17.994Z,1.30
2023-03-24T03:28:50.177Z,2.00
2023-03-24T03:31:19.138Z,1.67
2023-03-24T03:33:52.807Z,1.75
2023-03-24T03:36:21.990Z,1.52
2023-03-24T03:38:51.035Z,1.45
2023-03-24T03:41:18.414Z,1.23
2023-03-24T03:43:45.775Z,1.33
2023-03-24T03:46:12.238Z,1.30
2023-03-24T03:48:39.353Z,1.45
2023-03-24T03:51:13.690Z,1.50
2023-03-24T03:53:46.549Z,1.52
2023-03-24T03:56:13.357Z,1.55
2023-03-24T03:58:42.316Z,1.10
2023-03-24T04:01:10.686Z,1.38
2023-03-24T04:03:51.571Z,1.23
2023-03-24T04:06:22.306Z,1.15
2023-03-24T04:08:50.229Z,1.10
2023-03-24T04:11:31.325Z,1.40
2023-03-24T04:14:09.773Z,1.13
2023-03-24T04:16:39.969Z,1.20
2023-03-24T04:19:18.256Z,1.30
2023-03-24T04:22:03.017Z,1.00
2023-03-24T04:24:50.071Z,0.82
2023-03-24T04:27:49.021Z,1.02
2023-03-24T04:30:23.093Z,1.10
2023-03-24T04:32:52.185Z,1.00
2023-03-24T04:35:31.725Z,0.88
2023-03-24T04:38:04.541Z,0.95
2023-03-24T04:40:33.060Z,1.20
2023-03-24T04:43:01.473Z,1.05
2023-03-24T04:45:28.157Z,0.82
2023-03-24T04:47:56.950Z,0.80
2023-03-24T04:50:34.295Z,0.90
2023-03-24T04:53:00.855Z,0.80
2023-03-24T04:55:46.241Z,0.70
2023-03-24T04:58:12.690Z,0.55
2023-03-24T05:00:39.284Z,1.10
2023-03-24T05:03:05.611Z,1.30
2023-03-24T05:05:31.950Z,0.75
2023-03-24T05:07:58.307Z,0.80
2023-03-24T05:10:24.671Z,1.08
2023-03-24T05:12:51.025Z,0.90
2023-03-24T05:15:17.780Z,1.10
2023-03-24T05:17:44.234Z,0.95
2023-03-24T05:20:10.793Z,0.90
2023-03-24T05:22:37.661Z,0.90
2023-03-24T05:25:04.388Z,0.88
2023-03-24T05:27:30.875Z,0.93
2023-03-24T05:29:57.158Z,1.40
2023-03-24T05:32:23.712Z,1.10
2023-03-24T05:34:50.324Z,1.00
2023-03-24T05:37:18.032Z,1.38
2023-03-24T05:39:44.351Z,0.93
2023-03-24T05:42:11.151Z,1.10
2023-03-24T05:44:37.484Z,0.90
2023-03-24T05:47:04.321Z,0.88
2023-03-24T05:49:30.567Z,1.27
2023-03-24T05:51:56.870Z,0.90
2023-03-24T05:54:23.825Z,1.13
2023-03-24T05:56:50.273Z,0.95
2023-03-24T05:59:17.089Z,0.80
2023-03-24T06:01:43.346Z,1.13
2023-03-24T06:04:09.699Z,0.88
2023-03-24T06:06:38.282Z,1.52
2023-03-24T06:09:05.138Z,1.20
2023-03-24T06:11:31.517Z,0.82
2023-03-24T06:14:00.281Z,1.15
2023-03-24T06:16:27.175Z,0.90
2023-03-24T06:18:53.532Z,1.35
2023-03-24T06:21:22.820Z,1.15
2023-03-24T06:23:49.124Z,1.00
2023-03-24T06:26:16.710Z,0.90
2023-03-24T06:28:43.097Z,0.90
2023-03-24T06:31:14.955Z,1.20
2023-03-24T06:33:42.556Z,1.02
2023-03-24T06:36:09.647Z,1.13
2023-03-24T06:38:35.991Z,1.40
2023-03-24T06:41:03.514Z,1.17
2023-03-24T06:43:30.074Z,1.13
2023-03-24T06:45:56.422Z,1.00
2023-03-24T06:48:23.334Z,1.35
2023-03-24T06:50:49.763Z,0.80
2023-03-24T06:53:16.531Z,1.20
2023-03-24T06:55:43.052Z,1.30
2023-03-24T06:58:10.365Z,1.30
2023-03-24T07:00:36.939Z,1.40
2023-03-24T07:03:03.425Z,1.35
2023-03-24T07:05:29.779Z,1.63
2023-03-24T07:10:25.531Z,1.27
2023-03-24T07:12:51.825Z,1.25
2023-03-24T07:15:18.144Z,1.15
2023-03-24T07:17:44.462Z,1.50
2023-03-24T07:20:10.981Z,1.45
2023-03-24T07:22:37.404Z,1.30
2023-03-24T07:25:04.910Z,1.30
2023-03-24T07:27:32.792Z,1.50
2023-03-24T07:29:59.844Z,1.45
2023-03-24T07:32:26.445Z,1.85
2023-03-24T07:34:52.993Z,2.00
2023-03-24T07:37:19.411Z,1.88
2023-03-24T07:39:45.731Z,2.08
2023-03-24T07:42:13.083Z,2.50
2023-03-24T07:44:39.496Z,3.17
2023-03-24T07:47:06.120Z,2.50
2023-03-24T07:49:32.453Z,3.17
2023-03-24T07:51:59.164Z,3.17
2023-03-24T07:54:26.456Z,3.13
2023-03-24T07:56:52.852Z,3.15
2023-03-24T07:59:19.459Z,2.40
2023-03-24T08:01:47.782Z,2.20
2023-03-24T08:04:15.007Z,2.75
2023-03-24T08:06:43.347Z,2.42
2023-03-24T08:09:11.349Z,2.60
2023-03-24T08:11:38.101Z,2.28
2023-03-24T08:14:04.533Z,2.22
2023-03-24T08:16:31.041Z,2.03
2023-03-24T08:19:00.561Z,2.30
2023-03-24T08:21:27.028Z,2.72
2023-03-24T08:23:53.389Z,2.67
2023-03-24T08:26:19.673Z,2.50
2023-03-24T08:28:45.987Z,2.85
2023-03-24T08:31:12.531Z,2.50
2023-03-24T08:33:38.897Z,2.33
2023-03-24T08:36:05.400Z,2.30
2023-03-24T08:38:31.875Z,2.97
2023-03-24T08:40:59.068Z,2.67
2023-03-24T08:43:25.481Z,2.08
2023-03-24T08:45:51.816Z,2.20
2023-03-24T08:48:18.109Z,2.53
2023-03-24T08:50:44.422Z,2.05
2023-03-24T08:53:13.802Z,2.53
2023-03-24T08:55:43.075Z,2.90
2023-03-24T08:58:13.910Z,2.03
2023-03-24T09:00:40.529Z,2.00
2023-03-24T09:03:06.964Z,2.03
2023-03-24T09:05:43.988Z,2.30
2023-03-24T09:08:12.294Z,2.05
2023-03-24T09:10:39.173Z,1.80
2023-03-24T09:13:05.633Z,1.98
2023-03-24T09:15:32.234Z,1.83
2023-03-24T09:17:58.770Z,1.67
2023-03-24T09:20:25.659Z,2.20
2023-03-24T09:22:52.315Z,1.45
2023-03-24T09:25:20.256Z,1.80
2023-03-24T09:27:47.144Z,2.03
2023-03-24T09:30:14.460Z,2.20
2023-03-24T09:32:40.919Z,1.80
2023-03-24T09:35:08.513Z,1.58
2023-03-24T09:37:35.467Z,2.13
2023-03-24T09:40:02.296Z,1.88
2023-03-24T09:42:30.272Z,2.47
2023-03-24T09:45:01.235Z,2.05
2023-03-24T09:47:36.410Z,2.03
2023-03-24T09:50:06.502Z,1.50
2023-03-24T09:52:39.888Z,2.22
2023-03-24T09:55:11.960Z,1.83
2023-03-24T09:57:39.444Z,1.52
2023-03-24T10:00:26.346Z,2.13
2023-03-24T10:02:54.823Z,2.30
2023-03-24T10:05:22.491Z,1.60
2023-03-24T10:08:00.288Z,1.85
2023-03-24T10:10:27.319Z,1.63
2023-03-24T10:12:54.516Z,2.13
2023-03-24T10:15:30.903Z,2.00
2023-03-24T10:18:12.647Z,1.73
2023-03-24T10:20:42.639Z,1.67
2023-03-24T10:23:29.736Z,2.00
2023-03-24T10:26:17.708Z,1.73
2023-03-24T10:28:44.056Z,2.03
2023-03-24T10:31:11.655Z,2.00
2023-03-24T10:33:39.562Z,1.98
2023-03-24T10:36:18.885Z,1.42
2023-03-24T10:38:45.459Z,1.80
2023-03-24T10:41:32.037Z,2.05
2023-03-24T10:46:26.744Z,1.73
2023-03-24T10:48:54.658Z,1.60
2023-03-24T10:51:26.555Z,1.95
2023-03-24T10:54:11.143Z,1.80
2023-03-24T10:56:39.441Z,2.28
2023-03-24T10:59:18.870Z,1.30
2023-03-24T11:01:45.411Z,1.60
2023-03-24T11:04:14.066Z,1.58
2023-03-24T11:06:54.444Z,1.63
2023-03-24T11:09:22.075Z,1.60
2023-03-24T11:11:49.219Z,1.58
2023-03-24T11:14:24.113Z,1.60
2023-03-24T11:16:50.916Z,1.50
2023-03-24T11:19:20.919Z,1.80
2023-03-24T11:21:49.621Z,1.63
2023-03-24T11:24:16.938Z,1.85
2023-03-24T11:26:55.693Z,1.73
2023-03-24T11:29:24.208Z,1.88
2023-03-24T11:31:55.238Z,1.80
2023-03-24T11:34:24.610Z,1.60
2023-03-24T11:36:51.180Z,2.10
2023-03-24T11:39:17.703Z,1.65
2023-03-24T11:41:50.763Z,1.90
2023-03-24T11:44:24.484Z,2.00
2023-03-24T11:46:53.221Z,1.60
2023-03-24T11:49:21.171Z,1.70
2023-03-24T11:51:49.731Z,1.70
2023-03-24T11:54:17.314Z,1.77
2023-03-24T11:56:48.426Z,1.50
2023-03-24T11:59:21.597Z,1.98
2023-03-24T12:01:57.372Z,1.80
2023-03-24T12:04:25.161Z,1.70
2023-03-24T12:07:00.373Z,2.10
2023-03-24T12:09:33.314Z,2.50
2023-03-24T12:12:19.690Z,1.60
2023-03-24T12:14:51.087Z,1.45
2023-03-24T12:17:21.748Z,1.98
2023-03-24T12:20:02.322Z,1.67
2023-03-24T12:22:31.947Z,2.05
2023-03-24T12:25:17.129Z,1.80
2023-03-24T12:27:53.201Z,1.75
2023-03-24T12:30:31.338Z,1.70
2023-03-24T12:33:15.420Z,1.50
2023-03-24T12:36:00.870Z,1.38
2023-03-24T12:38:33.179Z,1.75
2023-03-24T12:41:11.716Z,1.48
2023-03-24T12:43:56.842Z,1.42
2023-03-24T12:46:47.981Z,1.70
2023-03-24T12:49:18.343Z,1.70
2023-03-24T12:51:52.756Z,1.80
2023-03-24T12:54:19.086Z,1.70
2023-03-24T12:56:48.774Z,1.77
2023-03-24T12:59:21.988Z,1.38
2023-03-24T13:01:51.600Z,1.38
2023-03-24T13:04:22.599Z,1.55
2023-03-24T13:06:56.544Z,1.40
2023-03-24T13:09:25.638Z,1.52
2023-03-24T13:11:56.320Z,1.25
2023-03-24T13:14:25.364Z,1.30
2023-03-24T13:16:54.856Z,1.33
2023-03-24T13:19:23.225Z,1.60
2023-03-24T13:21:50.753Z,1.20
2023-03-24T13:24:17.613Z,0.90
2023-03-24T13:26:57.752Z,1.23
2023-03-24T13:29:50.137Z,1.00
2023-03-24T13:32:28.974Z,1.15
2023-03-24T13:34:58.010Z,1.45
2023-03-24T13:37:36.271Z,1.55
2023-03-24T13:40:07.278Z,1.65
2023-03-24T13:42:35.810Z,0.90
2023-03-24T13:45:06.581Z,1.30
2023-03-24T13:47:51.550Z,1.10
2023-03-24T13:50:17.963Z,0.93
2023-03-24T13:52:46.257Z,1.50
2023-03-24T13:55:21.340Z,1.35
2023-03-24T13:57:53.834Z,1.02
2023-03-24T14:00:22.111Z,1.15
2023-03-24T14:02:49.809Z,1.05
2023-03-24T14:05:22.339Z,1.08
2023-03-24T14:07:49.843Z,1.23
2023-03-24T14:10:16.641Z,1.30
2023-03-24T14:12:52.014Z,1.15
2023-03-24T14:15:19.865Z,1.10
2023-03-24T14:17:48.107Z,1.40
2023-03-24T14:20:25.736Z,1.10
2023-03-24T14:22:53.153Z,0.80
2023-03-24T14:25:28.129Z,1.20
2023-03-24T14:28:06.400Z,1.23
2023-03-24T14:30:38.023Z,1.17
2023-03-24T14:33:05.058Z,1.40
2023-03-24T14:35:45.103Z,1.08
2023-03-24T14:38:14.391Z,1.27
2023-03-24T14:40:49.530Z,1.15
2023-03-24T14:43:17.544Z,0.98
2023-03-24T14:45:57.879Z,1.48
2023-03-24T14:48:37.931Z,1.48
2023-03-24T14:51:27.161Z,1.65
2023-03-24T14:53:57.723Z,1.20
2023-03-24T14:56:24.294Z,1.70
2023-03-24T14:58:51.741Z,1.33
2023-03-24T15:01:18.194Z,1.25
2023-03-24T15:03:52.016Z,1.17
2023-03-24T15:06:25.455Z,1.10
2023-03-24T15:08:52.897Z,0.98
2023-03-24T15:11:21.973Z,0.85
2023-03-24T15:13:49.741Z,0.98
2023-03-24T15:16:19.314Z,1.10
2023-03-24T15:18:58.114Z,1.00
2023-03-24T15:21:33.417Z,0.80
2023-03-24T15:24:01.205Z,1.13
2023-03-24T15:26:28.800Z,0.70
2023-03-24T15:28:59.782Z,0.90
2023-03-24T15:31:30.392Z,0.73
2023-03-24T15:34:06.661Z,0.98
2023-03-24T15:38:59.722Z,0.90
2023-03-24T15:41:26.025Z,1.05
2023-03-24T15:43:53.462Z,0.90
2023-03-24T15:46:22.412Z,0.80
2023-03-24T15:48:48.844Z,0.73
2023-03-24T15:51:15.435Z,0.88
2023-03-24T15:53:44.367Z,0.75
2023-03-24T15:56:17.964Z,0.60
2023-03-24T15:58:47.808Z,0.85
2023-03-24T16:01:17.345Z,0.90
2023-03-24T16:03:45.045Z,0.80
2023-03-24T16:06:15.380Z,0.80
2023-03-24T16:08:43.018Z,0.73
2023-03-24T16:11:13.590Z,0.80
2023-03-24T16:13:40.960Z,0.88
2023-03-24T16:16:13.458Z,1.05
2023-03-24T16:18:41.277Z,0.70
2023-03-24T16:21:18.408Z,0.70
2023-03-24T16:23:45.193Z,0.88
2023-03-24T16:26:14.366Z,0.70
2023-03-24T16:28:40.741Z,0.50
2023-03-24T16:31:07.529Z,0.93
2023-03-24T16:33:33.976Z,0.68
2023-03-24T16:36:00.582Z,0.80
2023-03-24T16:38:27.286Z,0.60
2023-03-24T16:40:54.608Z,0.70
2023-03-24T16:43:21.432Z,0.80
2023-03-24T16:45:48.422Z,1.33
2023-03-24T16:48:15.550Z,0.90
2023-03-24T16:50:42.996Z,1.27
2023-03-24T16:53:09.512Z,0.93
2023-03-24T16:55:41.242Z,0.80
2023-03-24T16:58:14.128Z,0.70
2023-03-24T17:00:43.656Z,0.75
2023-03-24T17:03:10.391Z,0.88
2023-03-24T17:05:44.239Z,0.70
2023-03-24T17:08:10.728Z,1.20
2023-03-24T17:10:37.087Z,0.77
2023-03-24T17:13:03.576Z,0.98
2023-03-24T17:15:30.685Z,0.98
2023-03-24T17:17:57.081Z,0.90
2023-03-24T17:20:24.871Z,1.00
2023-03-24T17:22:51.999Z,0.95
2023-03-24T17:25:21.223Z,0.80
2023-03-24T17:27:47.750Z,0.90
2023-03-24T17:30:16.570Z,0.80
2023-03-24T17:32:43.039Z,0.98
2023-03-24T17:35:13.615Z,1.13
2023-03-24T17:37:40.479Z,1.00
2023-03-24T17:40:10.153Z,0.82
2023-03-24T17:42:37.478Z,1.17
2023-03-24T17:45:05.033Z,1.15
2023-03-24T17:47:31.404Z,0.70
2023-03-24T17:49:58.052Z,1.05
2023-03-24T17:52:24.427Z,1.20
2023-03-24T17:54:50.789Z,0.93
2023-03-24T17:57:17.459Z,0.80
2023-03-24T17:59:44.086Z,0.70
2023-03-24T18:02:12.221Z,0.68
2023-03-24T18:04:38.775Z,0.90
2023-03-24T18:07:05.211Z,0.90
2023-03-24T18:09:31.758Z,1.08
2023-03-24T18:11:58.502Z,0.68
2023-03-24T18:14:24.937Z,0.60
2023-03-24T18:16:51.218Z,0.80
2023-03-24T18:19:17.870Z,0.90
2023-03-24T18:21:44.393Z,0.80
2023-03-24T18:24:10.736Z,0.98
2023-03-24T18:26:37.054Z,0.77
2023-03-24T18:29:03.716Z,1.20
2023-03-24T18:31:32.324Z,0.90
2023-03-24T18:33:58.980Z,0.80
2023-03-24T18:36:29.061Z,1.08
2023-03-24T18:39:02.207Z,0.95
2023-03-24T18:41:29.980Z,1.00
2023-03-24T18:43:57.003Z,1.00
2023-03-24T18:46:23.673Z,0.85
2023-03-24T18:48:53.048Z,1.05
2023-03-24T18:51:20.612Z,1.05
2023-03-24T18:53:49.694Z,0.95
2023-03-24T18:56:16.044Z,1.00
2023-03-24T18:58:45.987Z,0.88
2023-03-24T19:01:13.564Z,0.80
2023-03-24T19:03:41.512Z,0.90
2023-03-24T19:06:08.793Z,0.82
2023-03-24T19:08:36.012Z,0.73
2023-03-24T19:11:02.379Z,0.93
2023-03-24T19:13:28.681Z,0.90
2023-03-24T19:15:55.218Z,0.70
2023-03-24T19:18:22.905Z,0.50
2023-03-24T19:20:49.331Z,0.90
2023-03-24T19:23:15.998Z,0.98
2023-03-24T19:25:43.788Z,0.60
2023-03-24T19:28:10.130Z,0.73
2023-03-24T19:30:39.488Z,0.50
2023-03-24T19:33:06.995Z,1.02
2023-03-24T19:35:33.342Z,0.77
2023-03-24T19:38:00.346Z,0.80
2023-03-24T19:40:26.715Z,0.90
2023-03-24T19:42:53.027Z,0.60
2023-03-24T19:45:20.049Z,0.68
2023-03-24T19:47:46.919Z,0.70
2023-03-24T19:50:14.875Z,0.90
2023-03-24T19:52:43.102Z,0.70
2023-03-24T19:55:10.006Z,0.60
2023-03-24T19:57:36.409Z,1.23
2023-03-24T20:00:03.751Z,0.90
2023-03-24T20:02:30.323Z,0.80
2023-03-24T20:04:56.753Z,0.80
2023-03-24T20:07:23.203Z,0.75
2023-03-24T20:09:49.514Z,0.73
2023-03-24T20:12:15.820Z,0.82
2023-03-24T20:14:42.253Z,0.70
2023-03-24T20:17:11.577Z,0.80
2023-03-24T20:19:37.901Z,0.77
2023-03-24T20:22:04.214Z,0.55
2023-03-24T20:24:31.284Z,0.55
2023-03-24T20:26:57.585Z,0.60
2023-03-24T20:29:24.248Z,0.70
2023-03-24T20:31:50.681Z,0.55
2023-03-24T20:34:17.191Z,0.75
2023-03-24T20:36:43.532Z,0.45
2023-03-24T20:39:09.852Z,0.47
2023-03-24T20:41:36.170Z,0.73
2023-03-24T20:44:02.443Z,0.73
2023-03-24T20:46:28.767Z,0.80
2023-03-24T20:48:55.885Z,0.63
2023-03-24T20:51:22.199Z,1.00
2023-03-24T20:53:49.950Z,0.70
2023-03-24T20:56:16.572Z,0.77
2023-03-24T20:58:43.595Z,0.63
2023-03-24T21:01:12.528Z,0.60
2023-03-24T21:03:38.946Z,0.50
2023-03-24T21:06:05.904Z,0.60
2023-03-24T21:08:32.249Z,0.77
2023-03-24T21:10:58.800Z,0.93
2023-03-24T21:13:34.842Z,0.50
2023-03-24T21:16:08.600Z,0.60
2023-03-24T21:18:36.067Z,0.50
2023-03-24T21:21:05.346Z,0.95
2023-03-24T21:23:34.225Z,0.47
2023-03-24T21:26:04.771Z,0.68
2023-03-24T21:28:31.329Z,0.95
2023-03-24T21:30:58.545Z,0.40
2023-03-24T21:33:25.429Z,0.70
2023-03-24T21:35:54.449Z,0.60
2023-03-24T21:38:20.762Z,0.70
2023-03-24T21:40:47.080Z,1.00
2023-03-24T21:43:14.738Z,0.50
2023-03-24T21:45:41.168Z,0.85
2023-03-24T21:48:07.604Z,0.55
2023-03-24T21:50:38.944Z,0.70
2023-03-24T21:53:14.662Z,0.65
2023-03-24T21:55:41.589Z,0.70
2023-03-24T21:58:07.986Z,0.85
2023-03-24T22:00:39.930Z,0.68
2023-03-24T22:03:06.365Z,0.60
2023-03-24T22:05:33.848Z,0.90
2023-03-24T22:08:02.425Z,0.60
2023-03-24T22:10:29.774Z,0.75
2023-03-24T22:12:56.629Z,0.73
2023-03-24T22:15:23.263Z,0.90
2023-03-24T22:17:50.265Z,0.60
2023-03-24T22:20:16.843Z,0.77
2023-03-24T22:22:43.237Z,0.80
2023-03-24T22:25:11.088Z,0.70
2023-03-24T22:27:38.249Z,0.82
2023-03-24T22:30:08.418Z,0.82
2023-03-24T22:32:35.759Z,1.08
2023-03-24T22:35:02.425Z,0.90
2023-03-24T22:37:29.166Z,0.90
2023-03-24T22:39:55.487Z,0.77
2023-03-24T22:42:22.068Z,0.60
2023-03-24T22:44:48.396Z,0.80
2023-03-24T22:47:14.731Z,1.00
2023-03-24T22:49:41.442Z,0.50
2023-03-24T22:52:07.708Z,0.80
2023-03-24T22:54:34.138Z,0.68
2023-03-24T22:57:00.569Z,0.80
2023-03-24T22:59:26.998Z,0.85
2023-03-24T23:02:02.422Z,1.13
2023-03-24T23:04:35.292Z,1.05
2023-03-24T23:07:01.599Z,0.75
2023-03-24T23:09:29.766Z,0.73
2023-03-24T23:11:56.081Z,0.90
2023-03-24T23:14:22.404Z,0.85
2023-03-24T23:16:48.697Z,0.73
2023-03-24T23:19:15.265Z,0.60
2023-03-24T23:21:42.413Z,0.70
2023-03-24T23:24:08.693Z,0.50
2023-03-24T23:26:35.142Z,0.73
2023-03-24T23:29:01.478Z,1.00
2023-03-24T23:31:27.988Z,0.93
2023-03-24T23:33:55.982Z,0.82
2023-03-24T23:36:22.577Z,1.25
2023-03-24T23:38:50.608Z,0.85
2023-03-24T23:41:17.481Z,0.80
2023-03-24T23:43:47.345Z,0.80
2023-03-24T23:46:13.663Z,1.00
2023-03-24T23:48:40.042Z,0.68
2023-03-24T23:51:10.041Z,0.80
2023-03-24T23:53:36.539Z,0.70
2023-03-24T23:56:06.749Z,0.95
2023-03-24T23:58:34.838Z,0.93
